createdAt,value
2018-05-11T00:00:31.801Z,99.90
2018-05-11T00:02:59.369Z,99.90
2018-05-11T00:05:26.905Z,99.90
2018-05-11T00:07:54.479Z,99.90
2018-05-11T00:10:22.029Z,99.90
2018-05-11T00:12:49.605Z,99.90
2018-05-11T00:15:17.151Z,99.90
2018-05-11T00:17:44.736Z,99.90
2018-05-11T00:20:12.279Z,99.90
2018-05-11T00:22:39.845Z,99.90
2018-05-11T00:25:07.409Z,99.90
2018-05-11T00:27:34.979Z,99.90
2018-05-11T00:30:02.525Z,99.90
2018-05-11T00:32:30.091Z,99.90
2018-05-11T00:34:57.640Z,99.90
2018-05-11T00:37:25.223Z,99.90
2018-05-11T00:39:52.764Z,99.90
2018-05-11T00:42:20.331Z,99.90
2018-05-11T00:44:47.875Z,99.90
2018-05-11T00:47:15.439Z,99.90
2018-05-11T00:49:42.988Z,99.90
2018-05-11T00:52:10.569Z,99.90
2018-05-11T00:54:38.111Z,99.90
2018-05-11T00:57:05.667Z,99.90
2018-05-11T00:59:33.208Z,99.90
2018-05-11T01:02:00.810Z,99.90
2018-05-11T01:04:28.371Z,99.90
2018-05-11T01:06:55.940Z,99.90
2018-05-11T01:09:23.495Z,99.90
2018-05-11T01:11:51.052Z,99.90
2018-05-11T01:14:18.619Z,99.90
2018-05-11T01:16:46.176Z,99.90
2018-05-11T01:19:13.746Z,99.90
2018-05-11T01:21:41.285Z,99.90
2018-05-11T01:24:08.862Z,99.90
2018-05-11T01:26:36.419Z,99.90
2018-05-11T01:29:04.003Z,99.90
2018-05-11T01:31:31.567Z,99.90
2018-05-11T01:33:59.153Z,99.90
2018-05-11T01:36:26.689Z,99.90
2018-05-11T01:38:54.276Z,99.90
2018-05-11T01:41:21.829Z,99.90
2018-05-11T01:43:49.401Z,99.90
2018-05-11T01:46:16.945Z,99.90
2018-05-11T01:48:44.518Z,99.90
2018-05-11T01:51:12.138Z,99.90
2018-05-11T01:53:39.653Z,99.90
2018-05-11T01:56:07.208Z,99.90
2018-05-11T01:58:34.774Z,99.90
2018-05-11T02:01:02.323Z,99.90
2018-05-11T02:03:29.893Z,99.90
2018-05-11T02:05:57.425Z,99.90
2018-05-11T02:08:24.991Z,99.90
2018-05-11T02:10:52.545Z,99.90
2018-05-11T02:13:20.121Z,99.90
2018-05-11T02:15:47.660Z,99.90
2018-05-11T02:18:15.223Z,99.90
2018-05-11T02:20:42.761Z,99.90
2018-05-11T02:23:10.318Z,99.90
2018-05-11T02:25:37.859Z,99.90
2018-05-11T02:28:06.191Z,99.90
2018-05-11T02:30:33.729Z,99.90
2018-05-11T02:33:01.296Z,99.90
2018-05-11T02:35:28.841Z,99.90
2018-05-11T02:37:56.391Z,99.90
2018-05-11T02:40:23.976Z,99.90
2018-05-11T02:42:51.519Z,99.90
2018-05-11T02:45:19.088Z,99.90
2018-05-11T02:47:46.649Z,99.90
2018-05-11T02:50:14.229Z,99.90
2018-05-11T02:52:41.765Z,99.90
2018-05-11T02:55:09.335Z,99.90
2018-05-11T02:57:36.886Z,99.90
2018-05-11T03:00:04.444Z,99.90
2018-05-11T03:02:31.995Z,99.90
2018-05-11T03:04:59.584Z,99.90
2018-05-11T03:07:27.141Z,99.90
2018-05-11T03:09:54.703Z,99.90
2018-05-11T03:12:22.268Z,99.90
2018-05-11T03:14:50.598Z,99.90
2018-05-11T03:17:18.144Z,99.90
2018-05-11T03:19:46.479Z,99.90
2018-05-11T03:22:14.029Z,99.90
2018-05-11T03:24:41.585Z,99.90
2018-05-11T03:27:09.128Z,99.90
2018-05-11T03:29:36.681Z,99.90
2018-05-11T03:32:04.224Z,99.90
2018-05-11T03:34:32.567Z,99.90
2018-05-11T03:37:00.111Z,99.90
2018-05-11T03:39:27.662Z,99.90
2018-05-11T03:41:55.200Z,99.90
2018-05-11T03:44:22.780Z,99.90
2018-05-11T03:46:50.333Z,99.90
2018-05-11T03:49:17.894Z,99.90
2018-05-11T03:51:45.429Z,99.90
2018-05-11T03:54:12.996Z,99.90
2018-05-11T03:56:40.542Z,99.90
2018-05-11T03:59:08.852Z,99.90
2018-05-11T04:01:48.335Z,99.90
2018-05-11T04:04:28.486Z,99.90
2018-05-11T04:07:08.798Z,99.90
2018-05-11T04:09:36.368Z,99.90
2018-05-11T04:12:03.913Z,99.90
2018-05-11T04:14:31.483Z,99.90
2018-05-11T04:16:59.024Z,99.90
2018-05-11T04:19:26.563Z,99.90
2018-05-11T04:21:54.894Z,99.90
2018-05-11T04:24:22.445Z,99.90
2018-05-11T04:26:50.009Z,99.90
2018-05-11T04:29:17.555Z,99.90
2018-05-11T04:31:45.112Z,99.90
2018-05-11T04:34:12.655Z,99.90
2018-05-11T04:36:40.214Z,99.90
2018-05-11T04:39:07.758Z,99.90
2018-05-11T04:41:36.096Z,99.90
2018-05-11T04:44:03.650Z,99.90
2018-05-11T04:46:31.208Z,99.90
2018-05-11T04:48:58.742Z,99.90
2018-05-11T04:51:26.314Z,99.90
2018-05-11T04:53:53.850Z,99.90
2018-05-11T04:56:21.422Z,99.90
2018-05-11T04:58:48.967Z,99.90
2018-05-11T05:01:16.542Z,99.90
2018-05-11T05:03:44.090Z,99.90
2018-05-11T05:06:11.664Z,99.90
2018-05-11T05:08:39.218Z,99.90
2018-05-11T05:11:06.787Z,99.90
2018-05-11T05:13:34.395Z,99.90
2018-05-11T05:16:01.994Z,99.90
2018-05-11T05:18:30.322Z,99.90
2018-05-11T05:20:57.895Z,99.90
2018-05-11T05:23:27.242Z,99.90
2018-05-11T05:25:54.816Z,99.90
2018-05-11T05:28:22.349Z,99.90
2018-05-11T05:30:49.916Z,99.90
2018-05-11T05:33:17.464Z,99.90
2018-05-11T05:35:45.043Z,99.90
2018-05-11T05:38:12.597Z,99.90
2018-05-11T05:40:40.179Z,99.90
2018-05-11T05:43:08.503Z,99.90
2018-05-11T05:45:36.835Z,99.90
2018-05-11T05:48:04.381Z,99.90
2018-05-11T05:50:31.967Z,99.90
2018-05-11T05:52:59.515Z,99.90
2018-05-11T05:55:27.069Z,99.90
2018-05-11T05:57:54.631Z,99.90
2018-05-11T06:00:22.186Z,99.90
2018-05-11T06:02:49.755Z,99.90
2018-05-11T06:05:17.306Z,99.90
2018-05-11T06:07:45.638Z,99.90
2018-05-11T06:10:13.954Z,99.90
2018-05-11T06:12:41.532Z,99.90
2018-05-11T06:15:09.095Z,99.90
2018-05-11T06:17:36.731Z,99.90
2018-05-11T06:20:04.257Z,99.90
2018-05-11T06:22:32.586Z,99.90
2018-05-11T06:25:00.146Z,99.90
2018-05-11T06:27:27.721Z,99.90
2018-05-11T06:29:56.236Z,99.90
2018-05-11T06:32:24.567Z,99.90
2018-05-11T06:34:52.129Z,99.90
2018-05-11T06:37:19.713Z,99.90
2018-05-11T06:39:48.019Z,99.90
2018-05-11T06:42:15.593Z,99.90
2018-05-11T06:44:43.142Z,99.90
2018-05-11T06:47:10.719Z,99.90
2018-05-11T06:49:38.266Z,99.90
2018-05-11T06:52:05.839Z,99.90
2018-05-11T06:54:33.548Z,99.90
2018-05-11T06:57:01.160Z,99.90
2018-05-11T06:59:28.706Z,99.90
2018-05-11T07:01:56.272Z,99.90
2018-05-11T07:04:23.813Z,99.90
2018-05-11T07:06:51.386Z,99.90
2018-05-11T07:09:18.921Z,99.90
2018-05-11T07:11:47.263Z,99.90
2018-05-11T07:14:14.798Z,99.90
2018-05-11T07:16:42.362Z,99.90
2018-05-11T07:19:09.920Z,99.90
2018-05-11T07:21:37.499Z,99.90
2018-05-11T07:24:05.040Z,99.90
2018-05-11T07:26:32.586Z,99.90
2018-05-11T07:29:00.168Z,99.90
2018-05-11T07:31:27.715Z,99.90
2018-05-11T07:33:55.273Z,99.90
2018-05-11T07:36:22.824Z,99.90
2018-05-11T07:38:50.408Z,99.90
2018-05-11T07:41:18.779Z,98.80
2018-05-11T07:43:47.062Z,98.70
2018-05-11T07:46:14.608Z,98.70
2018-05-11T07:48:42.265Z,98.40
2018-05-11T07:51:09.822Z,97.50
2018-05-11T07:53:37.400Z,97.10
2018-05-11T07:56:04.947Z,97.00
2018-05-11T07:58:32.519Z,97.00
2018-05-11T08:01:00.060Z,96.60
2018-05-11T08:03:27.631Z,96.60
2018-05-11T08:05:55.188Z,96.30
2018-05-11T08:08:22.759Z,95.80
2018-05-11T08:10:50.302Z,95.70
2018-05-11T08:13:17.880Z,94.10
2018-05-11T08:15:45.426Z,94.40
2018-05-11T08:18:13.003Z,94.40
2018-05-11T08:20:40.555Z,93.90
2018-05-11T08:23:08.145Z,93.90
2018-05-11T08:25:35.695Z,94.20
2018-05-11T08:28:03.273Z,93.40
2018-05-11T08:30:31.578Z,92.10
2018-05-11T08:32:59.154Z,92.00
2018-05-11T08:35:26.717Z,91.20
2018-05-11T08:37:54.277Z,91.50
2018-05-11T08:40:21.834Z,90.10
2018-05-11T08:42:49.404Z,89.30
2018-05-11T08:45:16.972Z,89.50
2018-05-11T08:47:44.546Z,89.40
2018-05-11T08:50:12.177Z,88.60
2018-05-11T08:52:39.756Z,88.10
2018-05-11T08:55:07.317Z,85.00
2018-05-11T08:57:34.891Z,85.80
2018-05-11T09:00:02.458Z,85.20
2018-05-11T09:02:30.017Z,85.10
2018-05-11T09:04:57.585Z,82.80
2018-05-11T09:07:25.134Z,80.40
2018-05-11T09:09:52.709Z,77.90
2018-05-11T09:12:21.028Z,75.30
2018-05-11T09:14:48.696Z,75.10
2018-05-11T09:17:16.242Z,74.30
2018-05-11T09:19:43.799Z,73.10
2018-05-11T09:22:11.345Z,69.60
2018-05-11T09:24:38.924Z,68.30
2018-05-11T09:27:06.459Z,67.60
2018-05-11T09:29:34.794Z,71.30
2018-05-11T09:32:02.343Z,71.30
2018-05-11T09:34:29.912Z,68.10
2018-05-11T09:36:57.455Z,66.40
2018-05-11T09:39:25.044Z,65.50
2018-05-11T09:41:53.207Z,66.00
2018-05-11T09:44:21.147Z,65.40
2018-05-11T09:46:48.696Z,66.20
2018-05-11T09:49:16.287Z,66.80
2018-05-11T09:51:43.847Z,65.50
2018-05-11T09:54:11.419Z,63.40
2018-05-11T09:56:38.972Z,62.50
2018-05-11T09:59:06.556Z,59.80
2018-05-11T10:01:34.881Z,59.50
2018-05-11T10:04:02.451Z,59.40
2018-05-11T10:06:30.011Z,60.90
2018-05-11T10:08:57.583Z,58.50
2018-05-11T10:11:25.142Z,59.60
2018-05-11T10:13:52.788Z,59.50
2018-05-11T10:16:21.065Z,59.20
2018-05-11T10:18:48.646Z,59.20
2018-05-11T10:21:17.704Z,59.80
2018-05-11T10:23:45.291Z,59.70
2018-05-11T10:26:12.851Z,60.70
2018-05-11T10:28:40.433Z,59.50
2018-05-11T10:31:08.000Z,59.80
2018-05-11T10:33:35.546Z,58.30
2018-05-11T10:36:03.141Z,59.00
2018-05-11T10:38:31.453Z,62.50
2018-05-11T10:40:59.027Z,62.50
2018-05-11T10:43:26.571Z,61.20
2018-05-11T10:45:54.147Z,58.70
2018-05-11T10:48:21.703Z,58.70
2018-05-11T10:50:49.261Z,60.30
2018-05-11T10:53:16.832Z,61.30
2018-05-11T10:55:44.403Z,59.80
2018-05-11T10:58:11.966Z,60.50
2018-05-11T11:00:39.543Z,58.50
2018-05-11T11:03:07.867Z,59.60
2018-05-11T11:05:35.447Z,59.50
2018-05-11T11:08:03.770Z,59.20
2018-05-11T11:10:31.357Z,59.20
2018-05-11T11:12:58.920Z,59.30
2018-05-11T11:15:26.482Z,59.50
2018-05-11T11:17:54.021Z,60.90
2018-05-11T11:20:21.586Z,59.50
2018-05-11T11:22:49.133Z,60.80
2018-05-11T11:25:17.473Z,62.00
2018-05-11T11:27:45.029Z,62.10
2018-05-11T11:30:12.611Z,59.80
2018-05-11T11:32:40.974Z,60.00
2018-05-11T11:35:08.560Z,60.00
2018-05-11T11:37:36.867Z,57.20
2018-05-11T11:40:04.445Z,57.10
2018-05-11T11:42:31.993Z,57.10
2018-05-11T11:44:59.571Z,57.00
2018-05-11T11:47:27.157Z,56.70
2018-05-11T11:49:54.731Z,54.80
2018-05-11T11:52:23.064Z,54.90
2018-05-11T11:54:50.630Z,54.90
2018-05-11T11:57:18.955Z,55.90
2018-05-11T11:59:47.300Z,55.30
2018-05-11T12:02:14.852Z,55.30
2018-05-11T12:04:42.455Z,54.70
2018-05-11T12:07:10.765Z,55.30
2018-05-11T12:09:38.325Z,55.30
2018-05-11T12:12:05.895Z,55.00
2018-05-11T12:14:33.446Z,54.80
2018-05-11T12:17:01.028Z,54.20
2018-05-11T12:19:28.562Z,53.40
2018-05-11T12:21:56.130Z,52.60
2018-05-11T12:24:23.676Z,53.80
2018-05-11T12:26:51.243Z,54.30
2018-05-11T12:29:18.815Z,54.80
2018-05-11T12:31:46.379Z,55.00
2018-05-11T12:34:14.704Z,55.50
2018-05-11T12:36:43.048Z,55.60
2018-05-11T12:39:10.598Z,55.50
2018-05-11T12:41:38.170Z,56.20
2018-05-11T12:44:05.724Z,57.20
2018-05-11T12:46:33.320Z,57.50
2018-05-11T12:49:01.627Z,56.90
2018-05-11T12:51:29.199Z,56.80
2018-05-11T12:53:56.752Z,56.70
2018-05-11T12:56:24.595Z,57.40
2018-05-11T12:58:52.189Z,57.00
2018-05-11T13:01:19.757Z,56.70
2018-05-11T13:03:48.078Z,58.40
2018-05-11T13:06:16.411Z,58.20
2018-05-11T13:08:44.726Z,57.10
2018-05-11T13:11:13.075Z,56.00
2018-05-11T13:13:40.627Z,56.00
2018-05-11T13:16:08.207Z,56.50
2018-05-11T13:18:35.749Z,57.10
2018-05-11T13:21:03.313Z,57.10
2018-05-11T13:23:30.867Z,56.70
2018-05-11T13:25:58.438Z,56.70
2018-05-11T13:28:25.995Z,55.50
2018-05-11T13:30:53.566Z,55.70
2018-05-11T13:33:21.122Z,55.20
2018-05-11T13:35:48.711Z,56.00
2018-05-11T13:38:17.036Z,56.40
2018-05-11T13:40:44.579Z,56.40
2018-05-11T13:43:12.158Z,57.30
2018-05-11T13:45:39.714Z,56.90
2018-05-11T13:48:07.287Z,57.30
2018-05-11T13:50:34.872Z,57.00
2018-05-11T13:53:03.216Z,56.20
2018-05-11T13:55:31.531Z,57.20
2018-05-11T13:57:59.871Z,57.50
2018-05-11T14:00:27.405Z,57.40
2018-05-11T14:02:54.966Z,56.50
2018-05-11T14:05:22.502Z,55.80
2018-05-11T14:07:50.066Z,56.50
2018-05-11T14:10:17.616Z,56.80
2018-05-11T14:12:45.211Z,56.40
2018-05-11T14:15:12.751Z,55.40
2018-05-11T14:17:40.316Z,55.00
2018-05-11T14:20:07.872Z,55.80
2018-05-11T14:22:35.446Z,55.00
2018-05-11T14:25:03.087Z,54.40
2018-05-11T14:27:30.579Z,53.60
2018-05-11T14:29:58.119Z,53.70
2018-05-11T14:32:25.703Z,53.50
2018-05-11T14:34:53.252Z,53.30
2018-05-11T14:37:20.810Z,53.30
2018-05-11T14:39:48.383Z,53.70
2018-05-11T14:42:16.723Z,54.00
2018-05-11T14:44:44.286Z,54.00
2018-05-11T14:47:11.873Z,53.60
2018-05-11T14:49:40.413Z,53.50
2018-05-11T14:52:07.928Z,53.50
2018-05-11T14:54:35.478Z,53.80
2018-05-11T14:57:03.816Z,53.50
2018-05-11T14:59:31.377Z,53.40
2018-05-11T15:01:58.958Z,53.40
2018-05-11T15:04:26.502Z,52.70
2018-05-11T15:06:54.059Z,53.20
2018-05-11T15:09:21.642Z,54.10
2018-05-11T15:11:49.196Z,53.70
2018-05-11T15:14:16.772Z,54.40
2018-05-11T15:16:45.100Z,54.70
2018-05-11T15:19:13.429Z,54.30
2018-05-11T15:21:41.745Z,53.70
2018-05-11T15:24:10.084Z,53.90
2018-05-11T15:26:38.413Z,53.20
2018-05-11T15:29:06.746Z,52.90
2018-05-11T15:31:34.298Z,53.40
2018-05-11T15:34:01.874Z,53.20
2018-05-11T15:36:29.422Z,52.70
2018-05-11T15:38:57.753Z,54.10
2018-05-11T15:41:25.300Z,54.10
2018-05-11T15:43:53.649Z,54.30
2018-05-11T15:46:21.205Z,54.30
2018-05-11T15:48:48.779Z,54.30
2018-05-11T15:51:16.318Z,54.90
2018-05-11T15:53:43.896Z,54.30
2018-05-11T15:56:11.439Z,54.50
2018-05-11T15:58:39.789Z,51.70
2018-05-11T16:01:07.334Z,51.70
2018-05-11T16:03:34.916Z,51.70
2018-05-11T16:06:02.464Z,51.20
2018-05-11T16:08:30.031Z,50.60
2018-05-11T16:10:57.580Z,49.80
2018-05-11T16:13:25.144Z,49.60
2018-05-11T16:15:52.692Z,47.30
2018-05-11T16:18:20.264Z,48.20
2018-05-11T16:20:47.811Z,46.40
2018-05-11T16:23:15.381Z,46.10
2018-05-11T16:25:42.927Z,47.10
2018-05-11T16:28:10.560Z,47.70
2018-05-11T16:30:38.045Z,48.80
2018-05-11T16:33:05.611Z,49.90
2018-05-11T16:35:33.145Z,49.70
2018-05-11T16:38:01.485Z,49.60
2018-05-11T16:40:29.140Z,49.60
2018-05-11T16:42:56.619Z,48.90
2018-05-11T16:45:24.162Z,48.20
2018-05-11T16:47:51.718Z,47.80
2018-05-11T16:50:19.288Z,48.90
2018-05-11T16:52:46.834Z,48.70
2018-05-11T16:55:14.408Z,47.90
2018-05-11T16:57:41.955Z,47.40
2018-05-11T17:00:10.292Z,48.10
2018-05-11T17:02:37.849Z,48.10
2018-05-11T17:05:05.426Z,49.50
2018-05-11T17:07:32.983Z,49.00
2018-05-11T17:10:00.568Z,48.40
2018-05-11T17:12:28.114Z,49.10
2018-05-11T17:14:55.696Z,49.30
2018-05-11T17:17:23.251Z,49.80
2018-05-11T17:19:50.823Z,49.70
2018-05-11T17:22:18.376Z,49.30
2018-05-11T17:24:45.955Z,49.50
2018-05-11T17:27:13.500Z,50.20
2018-05-11T17:29:41.071Z,50.80
2018-05-11T17:32:08.618Z,51.70
2018-05-11T17:34:36.183Z,52.70
2018-05-11T17:37:03.731Z,53.30
2018-05-11T17:39:31.310Z,53.90
2018-05-11T17:41:58.854Z,54.30
2018-05-11T17:44:26.419Z,54.10
2018-05-11T17:46:53.972Z,54.20
2018-05-11T17:49:21.575Z,54.60
2018-05-11T17:51:49.892Z,55.40
2018-05-11T17:54:17.458Z,55.40
2018-05-11T17:56:44.996Z,56.00
2018-05-11T17:59:12.560Z,56.00
2018-05-11T18:01:40.110Z,56.60
2018-05-11T18:04:07.676Z,56.80
2018-05-11T18:06:35.235Z,57.10
2018-05-11T18:09:02.846Z,57.50
2018-05-11T18:11:30.411Z,58.70
2018-05-11T18:13:57.955Z,59.60
2018-05-11T18:16:25.531Z,60.90
2018-05-11T18:18:53.071Z,62.30
2018-05-11T18:21:20.634Z,63.90
2018-05-11T18:23:48.180Z,64.90
2018-05-11T18:26:15.745Z,66.10
2018-05-11T18:28:43.282Z,67.90
2018-05-11T18:31:10.860Z,69.10
2018-05-11T18:33:38.410Z,70.20
2018-05-11T18:36:05.995Z,72.00
2018-05-11T18:38:33.538Z,72.50
2018-05-11T18:41:02.043Z,75.50
2018-05-11T18:43:29.591Z,75.50
2018-05-11T18:45:57.158Z,77.00
2018-05-11T18:48:24.707Z,78.20
2018-05-11T18:50:52.284Z,79.30
2018-05-11T18:53:20.170Z,79.70
2018-05-11T18:55:47.398Z,81.50
2018-05-11T18:58:14.931Z,82.50
2018-05-11T19:00:42.493Z,83.50
2018-05-11T19:03:10.040Z,84.90
2018-05-11T19:05:37.610Z,86.10
2018-05-11T19:08:05.154Z,87.20
2018-05-11T19:10:32.749Z,88.40
2018-05-11T19:13:00.295Z,89.80
2018-05-11T19:15:27.857Z,90.40
2018-05-11T19:17:55.409Z,91.00
2018-05-11T19:20:22.987Z,91.50
2018-05-11T19:22:50.535Z,92.00
2018-05-11T19:25:18.108Z,92.60
2018-05-11T19:27:45.655Z,93.30
2018-05-11T19:30:13.997Z,93.90
2018-05-11T19:32:41.549Z,93.80
2018-05-11T19:35:09.126Z,94.50
2018-05-11T19:37:36.665Z,94.90
2018-05-11T19:40:04.211Z,95.30
2018-05-11T19:42:32.557Z,96.00
2018-05-11T19:45:00.098Z,96.00
2018-05-11T19:47:27.650Z,96.40
2018-05-11T19:49:55.194Z,96.90
2018-05-11T19:52:22.768Z,97.30
2018-05-11T19:54:50.317Z,97.60
2018-05-11T19:57:17.920Z,97.70
2018-05-11T19:59:45.470Z,97.90
2018-05-11T20:02:13.039Z,98.20
2018-05-11T20:04:40.669Z,98.50
2018-05-11T20:07:08.951Z,99.00
2018-05-11T20:09:36.525Z,98.90
2018-05-11T20:12:04.876Z,99.20
2018-05-11T20:14:32.431Z,99.20
2018-05-11T20:17:00.003Z,99.20
2018-05-11T20:19:27.554Z,99.20
2018-05-11T20:21:55.119Z,99.40
2018-05-11T20:24:22.659Z,99.50
2018-05-11T20:26:50.237Z,99.60
2018-05-11T20:29:17.786Z,99.70
2018-05-11T20:31:45.358Z,99.90
2018-05-11T20:34:12.902Z,99.90
2018-05-11T20:36:40.465Z,99.90
2018-05-11T20:39:08.002Z,99.90
2018-05-11T20:41:35.616Z,99.90
2018-05-11T20:44:03.149Z,99.90
2018-05-11T20:46:30.723Z,99.90
2018-05-11T20:48:58.274Z,99.90
2018-05-11T20:51:25.828Z,99.90
2018-05-11T20:53:53.406Z,99.90
2018-05-11T20:56:20.954Z,99.90
2018-05-11T20:58:48.524Z,99.90
2018-05-11T21:01:16.846Z,99.90
2018-05-11T21:03:45.178Z,99.90
2018-05-11T21:06:12.728Z,99.90
2018-05-11T21:11:14.155Z,99.90
2018-05-11T21:13:42.485Z,99.90
2018-05-11T21:16:10.802Z,99.90
2018-05-11T21:18:39.146Z,99.90
2018-05-11T21:21:07.462Z,99.90
2018-05-11T21:23:35.805Z,99.90
2018-05-11T21:26:03.373Z,99.90
2018-05-11T21:28:30.943Z,99.90
2018-05-11T21:30:58.486Z,99.90
2018-05-11T21:33:26.087Z,99.90
2018-05-11T21:35:53.700Z,99.90
2018-05-11T21:38:21.280Z,99.90
2018-05-11T21:40:48.918Z,99.90
2018-05-11T21:43:17.191Z,99.90
2018-05-11T21:45:44.739Z,99.90
2018-05-11T21:48:12.311Z,99.90
2018-05-11T21:50:39.880Z,99.90
2018-05-11T21:53:07.454Z,99.90
2018-05-11T21:55:35.019Z,99.90
2018-05-11T21:58:03.355Z,99.90
2018-05-11T22:00:30.911Z,99.90
2018-05-11T22:02:58.486Z,99.90
2018-05-11T22:05:26.036Z,99.90
2018-05-11T22:07:53.607Z,99.90
2018-05-11T22:10:21.152Z,99.90
2018-05-11T22:12:48.723Z,99.90
2018-05-11T22:15:16.330Z,99.90
2018-05-11T22:17:44.665Z,99.90
2018-05-11T22:20:12.223Z,99.90
2018-05-11T22:22:40.546Z,99.90
2018-05-11T22:25:08.884Z,99.90
2018-05-11T22:27:37.195Z,99.90
2018-05-11T22:30:05.531Z,99.90
2018-05-11T22:32:33.075Z,99.90
2018-05-11T22:35:00.646Z,99.90
2018-05-11T22:37:29.022Z,99.90
2018-05-11T22:39:56.555Z,99.90
2018-05-11T22:42:24.111Z,99.90
2018-05-11T22:44:51.689Z,99.90
2018-05-11T22:47:19.235Z,99.90
2018-05-11T22:49:46.818Z,99.90
2018-05-11T22:52:14.367Z,99.90
2018-05-11T22:54:41.929Z,99.90
2018-05-11T22:57:09.481Z,99.90
2018-05-11T22:59:37.046Z,99.90
2018-05-11T23:02:04.608Z,99.90
2018-05-11T23:04:32.203Z,99.90
2018-05-11T23:06:59.753Z,99.90
2018-05-11T23:09:27.314Z,99.90
2018-05-11T23:11:54.849Z,99.90
2018-05-11T23:14:22.419Z,99.90
2018-05-11T23:16:49.965Z,99.90
2018-05-11T23:19:17.530Z,99.90
2018-05-11T23:21:45.067Z,99.90
2018-05-11T23:24:12.640Z,99.90
2018-05-11T23:26:40.191Z,99.90
2018-05-11T23:29:07.756Z,99.90
2018-05-11T23:31:35.307Z,99.90
2018-05-11T23:34:02.880Z,99.90
2018-05-11T23:36:30.433Z,99.90
2018-05-11T23:38:58.017Z,99.90
2018-05-11T23:41:26.338Z,99.90
2018-05-11T23:43:54.680Z,99.90
2018-05-11T23:46:22.213Z,99.90
2018-05-11T23:48:49.786Z,99.90
2018-05-11T23:51:17.322Z,99.90
2018-05-11T23:53:44.882Z,99.90
2018-05-11T23:56:12.434Z,99.90
2018-05-11T23:58:39.990Z,99.90
